Piedmont Triad International Airport Greensboro US
ICAO: KGSO
IATA: GSO
Category: Large
Scheduled Services: Yes

Elevation: 925 ft
TransAlt. 18000 ft.

Airport Communications:
APP/DEP:118.5
ATIS:128.55
CLNC DEL:121.75
GND:121.9
TWR:119.1
UNICOM:122.95

KGSO Zoom In..

If you have problems with the map follow the link
https://www.worldairports.se/pages/airport.php?
ICAO=KGSO

Runways:

(A) RW 05L length 9000 ft width 150 ft
ILS 109.55 / hdg 54

(B) RW 05R length 10001 ft width 150 ft
ILS 111.90 / hdg 54

(C) RW 14 length 6380 ft width 150 ft
ILS 109.90 / hdg 143

(D) RW 23L length 10001 ft width 150 ft
ILS 109.30 / hdg 234

(E) RW 23R length 9000 ft width 150 ft
ILS 109.55 / hdg 234

(F) RW 32 length 6380 ft width 150 ft
---- / hdg 323

Location; KGSO
Day. 16 / Time. 02.54 Zulu
* Altimeter: 29.87
* Temperature: 03° c. 37.4°f.
* Wind from: 260° Speed 07 kn.
Dewpoint: 03° c.
Visibility: 2 Statute Miles.
Clouds: Overcast 300 ft.
Conditions: Slight Drizzle.Conditions: Mist.

KGSO 160254Z 26007KT 2SM -DZ BR OVC003 03/03 A2987 RMK AO2 DZB25 SLP119 P0000 60000 T00280028 56005


Wind From 260°
Speed 07 kn.

 
 
jpsmedia.com for Web Design worldairports.se 2018   terms of use